sensor_id;sensor_type;location;lat;lon;timestamp;pressure;altitude;pressure_sealevel;temperature;humidity
78064;BME280;67429;51.596;-3.264;2023-05-28T00:01:47;100231.59;;;13.09;43.93
78064;BME280;67429;51.596;-3.264;2023-05-28T00:04:13;100229.40;;;13.06;43.48
78064;BME280;67429;51.596;-3.264;2023-05-28T00:06:39;100229.41;;;13.62;43.32
78064;BME280;67429;51.596;-3.264;2023-05-28T00:09:04;100230.11;;;13.41;42.98
78064;BME280;67429;51.596;-3.264;2023-05-28T00:11:30;100231.30;;;13.38;43.32
78064;BME280;67429;51.596;-3.264;2023-05-28T00:13:55;100235.04;;;13.68;42.95
78064;BME280;67429;51.596;-3.264;2023-05-28T00:16:21;100239.96;;;13.57;42.80
78064;BME280;67429;51.596;-3.264;2023-05-28T00:18:47;100236.31;;;13.88;42.19
78064;BME280;67429;51.596;-3.264;2023-05-28T00:21:13;100238.86;;;14.47;41.33
78064;BME280;67429;51.596;-3.264;2023-05-28T00:23:38;100234.79;;;13.49;43.55
78064;BME280;67429;51.596;-3.264;2023-05-28T00:26:03;100230.47;;;13.95;42.48
78064;BME280;67429;51.596;-3.264;2023-05-28T00:28:29;100231.85;;;13.55;42.73
78064;BME280;67429;51.596;-3.264;2023-05-28T00:30:55;100233.67;;;13.50;42.68
78064;BME280;67429;51.596;-3.264;2023-05-28T00:33:20;100235.65;;;13.24;43.10
78064;BME280;67429;51.596;-3.264;2023-05-28T00:35:46;100233.42;;;13.13;43.72
78064;BME280;67429;51.596;-3.264;2023-05-28T00:38:12;100233.77;;;13.40;43.62
78064;BME280;67429;51.596;-3.264;2023-05-28T00:40:38;100234.23;;;12.97;44.02
78064;BME280;67429;51.596;-3.264;2023-05-28T00:43:02;100233.09;;;13.46;43.58
78064;BME280;67429;51.596;-3.264;2023-05-28T00:45:28;100229.09;;;12.69;44.92
78064;BME280;67429;51.596;-3.264;2023-05-28T00:47:54;100222.14;;;14.11;42.07
78064;BME280;67429;51.596;-3.264;2023-05-28T00:50:20;100222.95;;;13.71;42.23
78064;BME280;67429;51.596;-3.264;2023-05-28T00:52:46;100221.13;;;12.99;43.79
78064;BME280;67429;51.596;-3.264;2023-05-28T00:55:13;100223.43;;;12.95;44.24
78064;BME280;67429;51.596;-3.264;2023-05-28T00:57:36;100225.74;;;12.85;44.51
78064;BME280;67429;51.596;-3.264;2023-05-28T01:00:02;100223.54;;;12.77;44.98
78064;BME280;67429;51.596;-3.264;2023-05-28T01:02:27;100227.42;;;12.65;44.95
78064;BME280;67429;51.596;-3.264;2023-05-28T01:04:52;100230.66;;;13.21;43.87
78064;BME280;67429;51.596;-3.264;2023-05-28T01:07:18;100226.23;;;13.34;43.45
78064;BME280;67429;51.596;-3.264;2023-05-28T01:09:44;100227.25;;;13.61;42.58
78064;BME280;67429;51.596;-3.264;2023-05-28T01:12:10;100224.42;;;13.01;43.63
78064;BME280;67429;51.596;-3.264;2023-05-28T01:14:35;100226.75;;;12.78;44.07
78064;BME280;67429;51.596;-3.264;2023-05-28T01:17:03;100226.31;;;12.87;44.47
78064;BME280;67429;51.596;-3.264;2023-05-28T01:19:27;100227.23;;;12.72;44.15
78064;BME280;67429;51.596;-3.264;2023-05-28T01:21:56;100220.96;;;12.66;44.54
78064;BME280;67429;51.596;-3.264;2023-05-28T01:24:18;100221.24;;;12.40;44.68
78064;BME280;67429;51.596;-3.264;2023-05-28T01:26:43;100219.09;;;12.14;45.37
78064;BME280;67429;51.596;-3.264;2023-05-28T01:29:14;100215.47;;;11.66;46.58
78064;BME280;67429;51.596;-3.264;2023-05-28T01:31:34;100219.87;;;11.05;47.56
78064;BME280;67429;51.596;-3.264;2023-05-28T01:34:00;100218.01;;;11.87;46.78
78064;BME280;67429;51.596;-3.264;2023-05-28T01:36:28;100211.29;;;11.83;45.53
78064;BME280;67429;51.596;-3.264;2023-05-28T01:38:52;100220.01;;;12.29;45.70
78064;BME280;67429;51.596;-3.264;2023-05-28T01:41:17;100210.74;;;12.32;45.18
78064;BME280;67429;51.596;-3.264;2023-05-28T01:43:43;100217.88;;;12.18;45.83
78064;BME280;67429;51.596;-3.264;2023-05-28T01:46:08;100212.80;;;12.33;45.50
78064;BME280;67429;51.596;-3.264;2023-05-28T01:48:34;100220.25;;;12.11;45.72
78064;BME280;67429;51.596;-3.264;2023-05-28T01:50:59;100215.72;;;12.68;44.48
78064;BME280;67429;51.596;-3.264;2023-05-28T01:53:25;100214.50;;;12.09;45.11
78064;BME280;67429;51.596;-3.264;2023-05-28T01:55:50;100216.99;;;11.99;45.63
78064;BME280;67429;51.596;-3.264;2023-05-28T01:58:16;100215.42;;;11.97;45.81
78064;BME280;67429;51.596;-3.264;2023-05-28T02:00:47;100205.01;;;12.10;45.67
78064;BME280;67429;51.596;-3.264;2023-05-28T02:03:07;100209.08;;;12.15;45.67
78064;BME280;67429;51.596;-3.264;2023-05-28T02:05:33;100205.03;;;12.21;45.33
78064;BME280;67429;51.596;-3.264;2023-05-28T02:07:58;100204.36;;;12.37;45.16
78064;BME280;67429;51.596;-3.264;2023-05-28T02:10:24;100206.48;;;12.28;44.85
78064;BME280;67429;51.596;-3.264;2023-05-28T02:12:50;100207.33;;;12.50;45.43
78064;BME280;67429;51.596;-3.264;2023-05-28T02:15:15;100209.33;;;12.07;46.31
78064;BME280;67429;51.596;-3.264;2023-05-28T02:17:41;100212.93;;;11.54;47.08
78064;BME280;67429;51.596;-3.264;2023-05-28T02:20:07;100213.44;;;10.94;48.10
78064;BME280;67429;51.596;-3.264;2023-05-28T02:22:32;100210.32;;;11.88;46.70
78064;BME280;67429;51.596;-3.264;2023-05-28T02:24:58;100211.60;;;12.69;45.19
78064;BME280;67429;51.596;-3.264;2023-05-28T02:27:23;100220.31;;;10.94;47.93
78064;BME280;67429;51.596;-3.264;2023-05-28T02:29:49;100216.62;;;12.40;45.82
78064;BME280;67429;51.596;-3.264;2023-05-28T02:32:15;100216.88;;;11.35;46.76
78064;BME280;67429;51.596;-3.264;2023-05-28T02:34:40;100220.85;;;11.43;47.57
78064;BME280;67429;51.596;-3.264;2023-05-28T02:37:06;100214.10;;;11.02;49.51
78064;BME280;67429;51.596;-3.264;2023-05-28T02:39:31;100216.22;;;11.37;48.68
78064;BME280;67429;51.596;-3.264;2023-05-28T02:41:57;100213.28;;;11.36;48.57
78064;BME280;67429;51.596;-3.264;2023-05-28T02:44:23;100209.66;;;11.71;46.66
78064;BME280;67429;51.596;-3.264;2023-05-28T02:46:48;100207.06;;;11.95;46.63
78064;BME280;67429;51.596;-3.264;2023-05-28T02:49:19;100208.63;;;11.49;46.64
78064;BME280;67429;51.596;-3.264;2023-05-28T02:51:40;100205.08;;;11.69;46.99
78064;BME280;67429;51.596;-3.264;2023-05-28T02:54:05;100201.22;;;12.37;45.95
78064;BME280;67429;51.596;-3.264;2023-05-28T02:56:31;100202.66;;;12.28;45.20
78064;BME280;67429;51.596;-3.264;2023-05-28T02:58:57;100206.36;;;11.80;47.20
78064;BME280;67429;51.596;-3.264;2023-05-28T03:01:22;100203.10;;;12.01;45.78
78064;BME280;67429;51.596;-3.264;2023-05-28T03:03:48;100210.86;;;11.45;47.44
78064;BME280;67429;51.596;-3.264;2023-05-28T03:06:14;100216.51;;;11.14;47.91
78064;BME280;67429;51.596;-3.264;2023-05-28T03:08:39;100211.54;;;11.43;47.56
78064;BME280;67429;51.596;-3.264;2023-05-28T03:11:05;100212.70;;;11.82;47.79
78064;BME280;67429;51.596;-3.264;2023-05-28T03:13:30;100207.20;;;11.72;47.79
78064;BME280;67429;51.596;-3.264;2023-05-28T03:15:56;100209.12;;;11.50;47.83
78064;BME280;67429;51.596;-3.264;2023-05-28T03:18:22;100203.89;;;10.86;48.47
78064;BME280;67429;51.596;-3.264;2023-05-28T03:20:47;100204.05;;;12.17;46.54
78064;BME280;67429;51.596;-3.264;2023-05-28T03:23:13;100205.25;;;12.14;46.34
78064;BME280;67429;51.596;-3.264;2023-05-28T03:25:38;100202.51;;;12.01;46.57
78064;BME280;67429;51.596;-3.264;2023-05-28T03:28:04;100202.09;;;11.87;46.83
78064;BME280;67429;51.596;-3.264;2023-05-28T03:30:30;100202.88;;;12.28;46.21
78064;BME280;67429;51.596;-3.264;2023-05-28T03:32:55;100200.45;;;12.65;45.15
78064;BME280;67429;51.596;-3.264;2023-05-28T03:35:21;100202.61;;;12.16;45.50
78064;BME280;67429;51.596;-3.264;2023-05-28T03:37:46;100201.97;;;11.96;45.93
78064;BME280;67429;51.596;-3.264;2023-05-28T03:40:12;100208.24;;;11.61;46.43
78064;BME280;67429;51.596;-3.264;2023-05-28T03:42:38;100203.86;;;12.29;45.78
78064;BME280;67429;51.596;-3.264;2023-05-28T03:45:04;100200.22;;;12.56;45.27
78064;BME280;67429;51.596;-3.264;2023-05-28T03:47:29;100200.66;;;12.11;45.86
78064;BME280;67429;51.596;-3.264;2023-05-28T03:49:54;100201.29;;;12.38;45.76
78064;BME280;67429;51.596;-3.264;2023-05-28T03:52:20;100210.12;;;12.02;46.57
78064;BME280;67429;51.596;-3.264;2023-05-28T03:54:45;100207.64;;;12.10;46.58
78064;BME280;67429;51.596;-3.264;2023-05-28T03:57:12;100209.82;;;12.23;46.65
78064;BME280;67429;51.596;-3.264;2023-05-28T03:59:37;100207.88;;;11.70;47.07
78064;BME280;67429;51.596;-3.264;2023-05-28T04:02:02;100206.89;;;11.39;48.01
78064;BME280;67429;51.596;-3.264;2023-05-28T04:04:28;100209.91;;;10.95;49.16
78064;BME280;67429;51.596;-3.264;2023-05-28T04:06:54;100211.17;;;11.31;48.70
78064;BME280;67429;51.596;-3.264;2023-05-28T04:09:21;100209.80;;;10.73;49.29
78064;BME280;67429;51.596;-3.264;2023-05-28T04:11:45;100209.43;;;12.04;46.98
78064;BME280;67429;51.596;-3.264;2023-05-28T04:14:12;100210.92;;;11.05;49.07
78064;BME280;67429;51.596;-3.264;2023-05-28T04:16:36;100211.23;;;11.94;46.78
78064;BME280;67429;51.596;-3.264;2023-05-28T04:19:02;100204.87;;;12.76;45.60
78064;BME280;67429;51.596;-3.264;2023-05-28T04:21:28;100213.50;;;11.67;46.57
78064;BME280;67429;51.596;-3.264;2023-05-28T04:23:53;100213.40;;;12.35;45.41
78064;BME280;67429;51.596;-3.264;2023-05-28T04:26:20;100217.22;;;12.84;44.53
78064;BME280;67429;51.596;-3.264;2023-05-28T04:28:45;100219.96;;;13.11;44.12
78064;BME280;67429;51.596;-3.264;2023-05-28T04:31:11;100219.57;;;13.53;43.36
78064;BME280;67429;51.596;-3.264;2023-05-28T04:33:36;100220.20;;;13.18;43.55
78064;BME280;67429;51.596;-3.264;2023-05-28T04:36:02;100221.49;;;13.28;42.83
78064;BME280;67429;51.596;-3.264;2023-05-28T04:38:27;100223.40;;;13.11;43.50
78064;BME280;67429;51.596;-3.264;2023-05-28T04:40:53;100222.59;;;13.00;44.06
78064;BME280;67429;51.596;-3.264;2023-05-28T04:43:19;100220.96;;;13.12;43.46
78064;BME280;67429;51.596;-3.264;2023-05-28T04:45:44;100220.11;;;13.29;43.21
78064;BME280;67429;51.596;-3.264;2023-05-28T04:48:10;100220.45;;;13.10;43.81
78064;BME280;67429;51.596;-3.264;2023-05-28T04:50:36;100217.03;;;12.98;44.14
78064;BME280;67429;51.596;-3.264;2023-05-28T04:53:01;100217.52;;;12.84;44.48
78064;BME280;67429;51.596;-3.264;2023-05-28T04:55:27;100217.45;;;12.90;44.33
78064;BME280;67429;51.596;-3.264;2023-05-28T04:57:52;100219.28;;;12.83;44.67
78064;BME280;67429;51.596;-3.264;2023-05-28T05:00:19;100216.61;;;12.62;44.52
78064;BME280;67429;51.596;-3.264;2023-05-28T05:02:44;100218.62;;;12.88;44.54
78064;BME280;67429;51.596;-3.264;2023-05-28T05:05:10;100219.83;;;13.04;44.36
78064;BME280;67429;51.596;-3.264;2023-05-28T05:07:35;100220.92;;;12.99;44.48
78064;BME280;67429;51.596;-3.264;2023-05-28T05:10:01;100220.15;;;13.35;44.02
78064;BME280;67429;51.596;-3.264;2023-05-28T05:12:26;100218.53;;;13.35;44.05
78064;BME280;67429;51.596;-3.264;2023-05-28T05:14:52;100221.96;;;13.29;43.65
78064;BME280;67429;51.596;-3.264;2023-05-28T05:17:18;100226.92;;;12.94;43.79
78064;BME280;67429;51.596;-3.264;2023-05-28T05:19:43;100226.89;;;13.06;44.76
78064;BME280;67429;51.596;-3.264;2023-05-28T05:22:09;100227.70;;;12.97;45.47
78064;BME280;67429;51.596;-3.264;2023-05-28T05:24:35;100225.78;;;12.54;44.75
78064;BME280;67429;51.596;-3.264;2023-05-28T05:27:00;100222.00;;;12.37;46.17
78064;BME280;67429;51.596;-3.264;2023-05-28T05:29:26;100224.54;;;12.68;46.17
78064;BME280;67429;51.596;-3.264;2023-05-28T05:31:52;100221.57;;;12.81;45.99
78064;BME280;67429;51.596;-3.264;2023-05-28T05:34:17;100221.99;;;13.19;45.34
78064;BME280;67429;51.596;-3.264;2023-05-28T05:36:43;100221.69;;;13.09;45.73
78064;BME280;67429;51.596;-3.264;2023-05-28T05:39:08;100217.99;;;13.38;45.34
78064;BME280;67429;51.596;-3.264;2023-05-28T05:41:34;100223.67;;;13.33;44.81
78064;BME280;67429;51.596;-3.264;2023-05-28T05:44:00;100222.77;;;14.22;44.02
78064;BME280;67429;51.596;-3.264;2023-05-28T05:46:25;100225.49;;;13.47;44.88
78064;BME280;67429;51.596;-3.264;2023-05-28T05:48:51;100222.89;;;14.12;44.31
78064;BME280;67429;51.596;-3.264;2023-05-28T05:51:16;100225.15;;;13.94;43.50
78064;BME280;67429;51.596;-3.264;2023-05-28T05:53:42;100222.84;;;15.14;41.95
78064;BME280;67429;51.596;-3.264;2023-05-28T05:56:08;100223.05;;;14.91;42.24
78064;BME280;67429;51.596;-3.264;2023-05-28T05:58:34;100225.67;;;14.76;41.89
78064;BME280;67429;51.596;-3.264;2023-05-28T06:00:59;100225.62;;;15.51;40.78
78064;BME280;67429;51.596;-3.264;2023-05-28T06:03:25;100223.53;;;16.44;39.13
78064;BME280;67429;51.596;-3.264;2023-05-28T06:05:50;100222.62;;;16.73;39.24
78064;BME280;67429;51.596;-3.264;2023-05-28T06:08:16;100223.66;;;15.11;41.69
78064;BME280;67429;51.596;-3.264;2023-05-28T06:10:41;100222.66;;;16.31;40.55
78064;BME280;67429;51.596;-3.264;2023-05-28T06:13:07;100225.93;;;16.05;40.65
78064;BME280;67429;51.596;-3.264;2023-05-28T06:15:32;100227.58;;;15.62;41.09
78064;BME280;67429;51.596;-3.264;2023-05-28T06:17:58;100227.53;;;16.84;39.65
78064;BME280;67429;51.596;-3.264;2023-05-28T06:20:24;100226.22;;;15.93;41.08
78064;BME280;67429;51.596;-3.264;2023-05-28T06:22:55;100222.73;;;16.30;40.32
78064;BME280;67429;51.596;-3.264;2023-05-28T06:25:15;100226.08;;;16.05;39.89
78064;BME280;67429;51.596;-3.264;2023-05-28T06:27:40;100225.94;;;16.56;40.20
78064;BME280;67429;51.596;-3.264;2023-05-28T06:30:07;100228.00;;;16.10;41.19
78064;BME280;67429;51.596;-3.264;2023-05-28T06:32:31;100227.17;;;17.41;38.32
78064;BME280;67429;51.596;-3.264;2023-05-28T06:34:57;100225.88;;;16.90;39.41
78064;BME280;67429;51.596;-3.264;2023-05-28T06:37:22;100228.65;;;16.33;39.55
78064;BME280;67429;51.596;-3.264;2023-05-28T06:39:48;100231.16;;;16.96;38.85
78064;BME280;67429;51.596;-3.264;2023-05-28T06:42:13;100228.60;;;16.68;39.19
78064;BME280;67429;51.596;-3.264;2023-05-28T06:44:39;100229.05;;;17.30;39.44
78064;BME280;67429;51.596;-3.264;2023-05-28T06:47:05;100226.80;;;16.02;41.20
78064;BME280;67429;51.596;-3.264;2023-05-28T06:49:30;100229.75;;;15.95;41.70
78064;BME280;67429;51.596;-3.264;2023-05-28T06:51:56;100222.07;;;14.87;44.79
78064;BME280;67429;51.596;-3.264;2023-05-28T06:54:21;100231.88;;;14.43;45.22
78064;BME280;67429;51.596;-3.264;2023-05-28T06:56:47;100239.51;;;15.85;42.97
78064;BME280;67429;51.596;-3.264;2023-05-28T06:59:13;100235.81;;;15.82;42.77
78064;BME280;67429;51.596;-3.264;2023-05-28T07:01:38;100230.22;;;17.17;40.21
78064;BME280;67429;51.596;-3.264;2023-05-28T07:04:03;100240.15;;;16.96;40.06
78064;BME280;67429;51.596;-3.264;2023-05-28T07:06:29;100244.97;;;15.93;42.36
78064;BME280;67429;51.596;-3.264;2023-05-28T07:08:54;100239.98;;;17.32;40.46
78064;BME280;67429;51.596;-3.264;2023-05-28T07:11:21;100247.08;;;15.68;42.16
78064;BME280;67429;51.596;-3.264;2023-05-28T07:13:46;100243.31;;;15.14;44.31
78064;BME280;67429;51.596;-3.264;2023-05-28T07:16:12;100244.02;;;16.95;41.56
78064;BME280;67429;51.596;-3.264;2023-05-28T07:18:36;100247.09;;;17.54;39.61
78064;BME280;67429;51.596;-3.264;2023-05-28T07:21:03;100247.38;;;17.68;38.84
78064;BME280;67429;51.596;-3.264;2023-05-28T07:23:28;100250.80;;;16.95;39.72
78064;BME280;67429;51.596;-3.264;2023-05-28T07:25:53;100251.73;;;17.28;39.98
78064;BME280;67429;51.596;-3.264;2023-05-28T07:28:20;100250.09;;;15.20;43.37
78064;BME280;67429;51.596;-3.264;2023-05-28T07:30:44;100252.91;;;15.86;43.52
78064;BME280;67429;51.596;-3.264;2023-05-28T07:33:10;100261.33;;;17.01;41.51
78064;BME280;67429;51.596;-3.264;2023-05-28T07:35:35;100269.40;;;16.51;41.89
78064;BME280;67429;51.596;-3.264;2023-05-28T07:38:01;100266.36;;;16.54;40.84
78064;BME280;67429;51.596;-3.264;2023-05-28T07:40:26;100264.26;;;16.26;41.94
78064;BME280;67429;51.596;-3.264;2023-05-28T07:42:52;100266.09;;;16.25;41.76
78064;BME280;67429;51.596;-3.264;2023-05-28T07:45:17;100262.13;;;17.20;40.55
78064;BME280;67429;51.596;-3.264;2023-05-28T07:47:43;100264.37;;;17.91;38.84
78064;BME280;67429;51.596;-3.264;2023-05-28T07:50:09;100264.65;;;18.22;38.24
78064;BME280;67429;51.596;-3.264;2023-05-28T07:52:34;100265.15;;;17.66;39.53
78064;BME280;67429;51.596;-3.264;2023-05-28T07:54:59;100269.09;;;16.74;40.75
78064;BME280;67429;51.596;-3.264;2023-05-28T07:57:25;100273.33;;;16.69;40.33
78064;BME280;67429;51.596;-3.264;2023-05-28T07:59:51;100269.78;;;17.88;38.70
78064;BME280;67429;51.596;-3.264;2023-05-28T08:02:16;100266.69;;;18.28;38.16
78064;BME280;67429;51.596;-3.264;2023-05-28T08:04:41;100267.25;;;17.33;39.28
78064;BME280;67429;51.596;-3.264;2023-05-28T08:07:07;100271.08;;;16.50;41.26
78064;BME280;67429;51.596;-3.264;2023-05-28T08:09:32;100262.06;;;17.15;39.97
78064;BME280;67429;51.596;-3.264;2023-05-28T08:11:59;100265.94;;;16.90;40.92
78064;BME280;67429;51.596;-3.264;2023-05-28T08:14:23;100265.31;;;16.65;41.08
78064;BME280;67429;51.596;-3.264;2023-05-28T08:16:49;100259.13;;;16.88;41.35
78064;BME280;67429;51.596;-3.264;2023-05-28T08:19:14;100256.29;;;17.62;40.05
78064;BME280;67429;51.596;-3.264;2023-05-28T08:21:40;100264.09;;;18.59;38.42
78064;BME280;67429;51.596;-3.264;2023-05-28T08:24:06;100268.07;;;17.12;40.49
78064;BME280;67429;51.596;-3.264;2023-05-28T08:26:31;100261.38;;;16.33;41.64
78064;BME280;67429;51.596;-3.264;2023-05-28T08:28:56;100258.92;;;17.50;40.02
78064;BME280;67429;51.596;-3.264;2023-05-28T08:31:22;100257.20;;;17.40;39.43
78064;BME280;67429;51.596;-3.264;2023-05-28T08:33:47;100264.70;;;18.01;38.67
78064;BME280;67429;51.596;-3.264;2023-05-28T08:36:13;100258.69;;;18.50;38.14
78064;BME280;67429;51.596;-3.264;2023-05-28T08:38:38;100259.40;;;18.66;38.38
78064;BME280;67429;51.596;-3.264;2023-05-28T08:41:05;100259.92;;;18.32;38.16
78064;BME280;67429;51.596;-3.264;2023-05-28T08:43:30;100264.40;;;18.46;38.81
78064;BME280;67429;51.596;-3.264;2023-05-28T08:45:55;100257.71;;;17.86;39.82
78064;BME280;67429;51.596;-3.264;2023-05-28T08:48:21;100267.11;;;18.45;38.25
78064;BME280;67429;51.596;-3.264;2023-05-28T08:50:48;100261.87;;;18.71;38.53
78064;BME280;67429;51.596;-3.264;2023-05-28T08:53:15;100260.09;;;20.60;35.76
78064;BME280;67429;51.596;-3.264;2023-05-28T08:55:37;100254.50;;;20.01;35.63
78064;BME280;67429;51.596;-3.264;2023-05-28T08:58:03;100247.72;;;21.77;33.26
78064;BME280;67429;51.596;-3.264;2023-05-28T09:00:28;100252.81;;;20.68;33.90
78064;BME280;67429;51.596;-3.264;2023-05-28T09:02:54;100248.94;;;20.16;35.29
78064;BME280;67429;51.596;-3.264;2023-05-28T09:05:20;100248.42;;;19.24;36.23
78064;BME280;67429;51.596;-3.264;2023-05-28T09:07:44;100242.52;;;19.67;36.24
78064;BME280;67429;51.596;-3.264;2023-05-28T09:10:11;100237.94;;;19.73;36.41
78064;BME280;67429;51.596;-3.264;2023-05-28T09:12:35;100237.06;;;17.64;39.81
78064;BME280;67429;51.596;-3.264;2023-05-28T09:15:01;100239.90;;;18.08;39.29
78064;BME280;67429;51.596;-3.264;2023-05-28T09:17:33;100244.30;;;17.15;41.18
78064;BME280;67429;51.596;-3.264;2023-05-28T09:19:52;100239.83;;;17.30;41.39
78064;BME280;67429;51.596;-3.264;2023-05-28T09:22:18;100241.16;;;18.56;39.22
78064;BME280;67429;51.596;-3.264;2023-05-28T09:24:48;100238.96;;;17.87;39.51
78064;BME280;67429;51.596;-3.264;2023-05-28T09:27:08;100234.39;;;18.08;39.69
78064;BME280;67429;51.596;-3.264;2023-05-28T09:29:33;100241.10;;;18.58;39.10
78064;BME280;67429;51.596;-3.264;2023-05-28T09:32:00;100236.34;;;18.31;39.17
78064;BME280;67429;51.596;-3.264;2023-05-28T09:34:26;100239.97;;;18.97;38.06
78064;BME280;67429;51.596;-3.264;2023-05-28T09:36:51;100242.43;;;19.12;38.31
78064;BME280;67429;51.596;-3.264;2023-05-28T09:39:15;100239.59;;;19.27;37.76
78064;BME280;67429;51.596;-3.264;2023-05-28T09:41:41;100238.59;;;18.76;38.41
78064;BME280;67429;51.596;-3.264;2023-05-28T09:44:06;100233.98;;;19.77;37.07
78064;BME280;67429;51.596;-3.264;2023-05-28T09:46:33;100235.78;;;19.95;36.48
78064;BME280;67429;51.596;-3.264;2023-05-28T09:48:58;100246.57;;;20.56;35.64
78064;BME280;67429;51.596;-3.264;2023-05-28T09:51:26;100254.62;;;19.44;35.88
78064;BME280;67429;51.596;-3.264;2023-05-28T09:53:50;100249.61;;;20.59;35.25
78064;BME280;67429;51.596;-3.264;2023-05-28T09:56:14;100247.24;;;22.03;33.33
78064;BME280;67429;51.596;-3.264;2023-05-28T09:58:39;100252.48;;;22.34;32.12
78064;BME280;67429;51.596;-3.264;2023-05-28T10:01:08;100263.24;;;20.94;33.45
78064;BME280;67429;51.596;-3.264;2023-05-28T10:03:38;100252.75;;;20.67;34.40
78064;BME280;67429;51.596;-3.264;2023-05-28T10:05:59;100251.08;;;21.37;33.65
78064;BME280;67429;51.596;-3.264;2023-05-28T10:08:22;100251.75;;;19.63;35.80
78064;BME280;67429;51.596;-3.264;2023-05-28T10:10:51;100251.29;;;19.65;36.22
78064;BME280;67429;51.596;-3.264;2023-05-28T10:13:12;100255.15;;;21.29;34.36
78064;BME280;67429;51.596;-3.264;2023-05-28T10:15:43;100253.74;;;20.17;35.19
78064;BME280;67429;51.596;-3.264;2023-05-28T10:18:03;100251.70;;;20.24;36.57
78064;BME280;67429;51.596;-3.264;2023-05-28T10:20:28;100251.75;;;20.33;35.99
78064;BME280;67429;51.596;-3.264;2023-05-28T10:22:54;100255.54;;;21.03;34.58
78064;BME280;67429;51.596;-3.264;2023-05-28T10:25:20;100251.67;;;21.90;32.82
78064;BME280;67429;51.596;-3.264;2023-05-28T10:27:45;100247.80;;;21.80;33.46
78064;BME280;67429;51.596;-3.264;2023-05-28T10:30:11;100249.62;;;22.02;32.92
78064;BME280;67429;51.596;-3.264;2023-05-28T10:32:38;100247.79;;;21.51;33.20
78064;BME280;67429;51.596;-3.264;2023-05-28T10:35:01;100249.75;;;22.47;31.72
78064;BME280;67429;51.596;-3.264;2023-05-28T10:37:26;100250.24;;;22.51;30.72
78064;BME280;67429;51.596;-3.264;2023-05-28T10:39:51;100251.73;;;22.81;30.90
78064;BME280;67429;51.596;-3.264;2023-05-28T10:42:18;100251.81;;;23.20;31.77
78064;BME280;67429;51.596;-3.264;2023-05-28T10:44:49;100249.62;;;22.39;32.45
78064;BME280;67429;51.596;-3.264;2023-05-28T10:47:08;100247.74;;;22.25;31.42
78064;BME280;67429;51.596;-3.264;2023-05-28T10:49:33;100247.82;;;22.72;31.48
78064;BME280;67429;51.596;-3.264;2023-05-28T10:51:59;100244.22;;;22.47;31.28
78064;BME280;67429;51.596;-3.264;2023-05-28T10:59:15;100239.70;;;22.90;31.16
78064;BME280;67429;51.596;-3.264;2023-05-28T11:01:40;100241.54;;;23.68;30.30
78064;BME280;67429;51.596;-3.264;2023-05-28T11:04:06;100244.83;;;24.31;29.49
78064;BME280;67429;51.596;-3.264;2023-05-28T11:06:31;100243.00;;;23.71;29.43
78064;BME280;67429;51.596;-3.264;2023-05-28T11:08:57;100240.29;;;24.09;29.45
78064;BME280;67429;51.596;-3.264;2023-05-28T11:11:22;100238.92;;;22.27;31.42
78064;BME280;67429;51.596;-3.264;2023-05-28T11:13:48;100238.60;;;21.25;33.24
78064;BME280;67429;51.596;-3.264;2023-05-28T11:16:15;100234.60;;;22.22;33.11
78064;BME280;67429;51.596;-3.264;2023-05-28T11:18:38;100238.66;;;22.73;31.76
78064;BME280;67429;51.596;-3.264;2023-05-28T11:21:04;100235.93;;;23.53;30.58
78064;BME280;67429;51.596;-3.264;2023-05-28T11:23:29;100238.99;;;23.37;30.68
78064;BME280;67429;51.596;-3.264;2023-05-28T11:25:54;100240.30;;;22.77;31.20
78064;BME280;67429;51.596;-3.264;2023-05-28T11:28:20;100236.84;;;23.36;30.18
78064;BME280;67429;51.596;-3.264;2023-05-28T11:30:45;100237.61;;;23.32;30.96
78064;BME280;67429;51.596;-3.264;2023-05-28T11:33:11;100238.25;;;24.20;29.81
78064;BME280;67429;51.596;-3.264;2023-05-28T11:35:36;100234.43;;;24.07;30.08
78064;BME280;67429;51.596;-3.264;2023-05-28T11:38:01;100236.27;;;24.87;28.47
78064;BME280;67429;51.596;-3.264;2023-05-28T11:40:32;100240.20;;;23.05;30.70
78064;BME280;67429;51.596;-3.264;2023-05-28T11:42:57;100235.14;;;22.52;31.77
78064;BME280;67429;51.596;-3.264;2023-05-28T11:45:19;100231.46;;;23.94;30.11
78064;BME280;67429;51.596;-3.264;2023-05-28T11:47:43;100236.29;;;21.22;33.56
78064;BME280;67429;51.596;-3.264;2023-05-28T11:50:10;100228.08;;;22.13;32.15
78064;BME280;67429;51.596;-3.264;2023-05-28T11:52:34;100229.33;;;23.07;30.85
78064;BME280;67429;51.596;-3.264;2023-05-28T11:55:00;100233.00;;;21.95;32.29
78064;BME280;67429;51.596;-3.264;2023-05-28T11:57:26;100230.34;;;21.61;32.84
78064;BME280;67429;51.596;-3.264;2023-05-28T11:59:58;100228.24;;;21.70;33.13
78064;BME280;67429;51.596;-3.264;2023-05-28T12:02:17;100230.85;;;21.04;33.62
78064;BME280;67429;51.596;-3.264;2023-05-28T12:04:53;100230.73;;;21.35;33.31
78064;BME280;67429;51.596;-3.264;2023-05-28T12:07:06;100222.69;;;21.67;33.60
78064;BME280;67429;51.596;-3.264;2023-05-28T12:09:31;100230.59;;;21.29;34.10
78064;BME280;67429;51.596;-3.264;2023-05-28T12:12:03;100218.03;;;21.70;33.27
78064;BME280;67429;51.596;-3.264;2023-05-28T12:14:22;100227.09;;;21.71;32.88
78064;BME280;67429;51.596;-3.264;2023-05-28T12:16:47;100218.66;;;21.72;33.12
78064;BME280;67429;51.596;-3.264;2023-05-28T12:19:14;100218.55;;;23.47;31.56
78064;BME280;67429;51.596;-3.264;2023-05-28T12:21:38;100217.91;;;23.58;31.10
78064;BME280;67429;51.596;-3.264;2023-05-28T12:24:11;100214.88;;;21.26;34.18
78064;BME280;67429;51.596;-3.264;2023-05-28T12:26:29;100218.07;;;22.46;32.26
78064;BME280;67429;51.596;-3.264;2023-05-28T12:28:54;100219.12;;;23.09;30.20
78064;BME280;67429;51.596;-3.264;2023-05-28T12:31:26;100210.26;;;22.99;31.18
78064;BME280;67429;51.596;-3.264;2023-05-28T12:33:45;100213.47;;;21.42;34.05
78064;BME280;67429;51.596;-3.264;2023-05-28T12:36:11;100215.18;;;20.68;35.26